Time;durP1;ratioP1;P1;durP2;ratioP2;P2;SDS_P1;SDS_P2;PMS_P1;PMS_P2;Temp;Humidity;BMP_temperature;BMP_pressure;BME280_temperature;BME280_humidity;BME280_pressure;Samples;Min_cycle;Max_cycle;Signal;HPM_P1;HPM_P2
2023/06/18 00:01:47;;;;;;;28.05;25.45;;;15.60;99.90;;;;;;4920799;29;20071;-75
2023/06/18 00:04:13;;;;;;;29.50;26.90;;;15.60;99.90;;;;;;4926896;28;20544;-75
2023/06/18 00:06:39;;;;;;;29.75;27.17;;;15.60;99.90;;;;;;4939574;29;20533;-75
2023/06/18 00:09:04;;;;;;;29.20;26.50;;;15.60;99.90;;;;;;4932211;29;20044;-75
2023/06/18 00:11:30;;;;;;;28.92;26.33;;;15.60;99.90;;;;;;4920377;29;20047;-75
2023/06/18 00:13:55;;;;;;;30.98;27.92;;;15.70;99.90;;;;;;4903243;29;20050;-75
2023/06/18 00:16:21;;;;;;;30.48;27.65;;;15.70;99.90;;;;;;4920466;29;20091;-75
2023/06/18 00:18:46;;;;;;;30.25;27.35;;;15.60;99.90;;;;;;4920451;29;20050;-75
2023/06/18 00:21:13;;;;;;;30.60;27.80;;;15.60;99.90;;;;;;4920490;29;20409;-75
2023/06/18 00:23:38;;;;;;;31.67;28.67;;;15.60;99.90;;;;;;4924803;29;20095;-75
2023/06/18 00:26:04;;;;;;;29.30;26.65;;;15.60;99.90;;;;;;4918923;29;20048;-75
2023/06/18 00:28:31;;;;;;;32.42;29.52;;;15.50;99.90;;;;;;4920324;29;20050;-75
2023/06/18 00:30:56;;;;;;;33.63;30.42;;;15.40;99.90;;;;;;4920567;29;20446;-75
2023/06/18 00:33:23;;;;;;;32.78;29.73;;;15.30;99.90;;;;;;4919601;29;20035;-75
2023/06/18 00:35:57;;;;;;;32.90;30.00;;;15.30;99.90;;;;;;4924610;29;20122;-75
2023/06/18 00:38:23;;;;;;;32.05;28.92;;;15.20;99.90;;;;;;4918654;29;20043;-75
2023/06/18 00:40:50;;;;;;;35.03;31.73;;;15.10;99.90;;;;;;4920154;29;20090;-75
2023/06/18 00:43:16;;;;;;;33.47;30.42;;;15.00;99.90;;;;;;4919830;29;20130;-75
2023/06/18 00:45:44;;;;;;;33.88;30.65;;;14.80;99.90;;;;;;4927864;29;20122;-75
2023/06/18 00:48:09;;;;;;;35.28;32.08;;;14.80;99.90;;;;;;4914239;29;20040;-75
2023/06/18 00:50:35;;;;;;;37.75;34.03;;;14.70;99.90;;;;;;4919844;29;20082;-75
2023/06/18 00:53:01;;;;;;;36.67;33.28;;;14.60;99.90;;;;;;4919321;29;20039;-75
2023/06/18 00:55:31;;;;;;;37.08;33.58;;;14.60;99.90;;;;;;4908869;29;20501;-75
2023/06/18 00:58:00;;;;;;;38.78;34.97;;;14.60;99.90;;;;;;4926584;29;20050;-75
2023/06/18 01:00:28;;;;;;;38.35;34.90;;;14.60;99.90;;;;;;4919620;29;20044;-75
2023/06/18 01:02:55;;;;;;;36.95;33.80;;;14.60;99.90;;;;;;4917904;29;20051;-76
2023/06/18 01:05:23;;;;;;;37.47;34.03;;;14.50;99.90;;;;;;4925566;29;20047;-75
2023/06/18 01:07:49;;;;;;;34.38;31.20;;;14.50;99.90;;;;;;4919303;29;20036;-75
2023/06/18 01:10:17;;;;;;;36.67;33.22;;;14.50;99.90;;;;;;4919585;29;20051;-75
2023/06/18 01:12:46;;;;;;;34.28;31.27;;;14.40;99.90;;;;;;4919353;29;20509;-75
2023/06/18 01:15:12;;;;;;;39.42;35.72;;;14.30;99.90;;;;;;4923886;29;20047;-75
2023/06/18 01:17:39;;;;;;;39.92;36.13;;;14.20;99.90;;;;;;4928814;29;20454;-75
2023/06/18 01:20:09;;;;;;;38.85;35.25;;;14.20;99.90;;;;;;4919468;29;20495;-75
2023/06/18 01:23:01;;;;;;;39.08;35.50;;;14.10;99.90;;;;;;4919438;29;20044;-75
2023/06/18 01:25:32;;;;;;;41.78;37.83;;;14.10;99.90;;;;;;4921335;29;20035;-75
2023/06/18 01:28:00;;;;;;;38.67;35.08;;;14.00;99.90;;;;;;4923310;29;20047;-75
2023/06/18 01:30:26;;;;;;;40.35;36.58;;;14.00;99.90;;;;;;4922430;28;20557;-75
2023/06/18 01:32:54;;;;;;;39.15;35.65;;;14.00;99.90;;;;;;4937152;29;20043;-75
2023/06/18 01:35:21;;;;;;;39.97;36.20;;;13.90;99.90;;;;;;4922336;29;20455;-75
2023/06/18 01:38:14;;;;;;;44.63;40.33;;;13.90;99.90;;;;;;4903299;29;20514;-75
2023/06/18 01:40:57;;;;;;;39.20;35.70;;;13.90;99.90;;;;;;4922917;29;20122;-75
2023/06/18 01:43:29;;;;;;;43.70;39.42;;;13.80;99.90;;;;;;4917902;29;20262;-75
2023/06/18 01:46:04;;;;;;;43.90;39.50;;;13.80;99.90;;;;;;4918603;29;20439;-75
2023/06/18 01:48:35;;;;;;;45.08;40.80;;;13.80;99.90;;;;;;4918841;29;20054;-75
2023/06/18 01:51:03;;;;;;;45.88;41.53;;;13.70;99.90;;;;;;4918923;29;20088;-75
2023/06/18 01:53:31;;;;;;;44.85;40.50;;;13.70;99.90;;;;;;4902811;29;20040;-75
2023/06/18 01:55:59;;;;;;;42.28;38.35;;;13.70;99.90;;;;;;4926703;29;20039;-75
2023/06/18 01:58:25;;;;;;;39.70;36.20;;;13.70;99.90;;;;;;4921914;29;20562;-75
2023/06/18 02:00:52;;;;;;;40.72;37.03;;;13.70;99.90;;;;;;4917826;29;20047;-75
2023/06/18 02:03:18;;;;;;;44.63;40.03;;;13.60;99.90;;;;;;4917560;29;20051;-75
2023/06/18 02:05:44;;;;;;;45.88;41.13;;;13.60;99.90;;;;;;4925918;29;21436;-75
2023/06/18 02:08:10;;;;;;;44.15;40.05;;;13.60;99.90;;;;;;4923613;29;20127;-75
2023/06/18 02:10:36;;;;;;;47.45;42.83;;;13.50;99.90;;;;;;4918489;29;20039;-75
2023/06/18 02:13:01;;;;;;;44.42;40.17;;;13.50;99.90;;;;;;4917441;29;20043;-75
2023/06/18 02:15:27;;;;;;;41.42;37.72;;;13.50;99.90;;;;;;4922543;29;20042;-75
2023/06/18 02:17:52;;;;;;;42.80;38.72;;;13.40;99.90;;;;;;4918185;29;20173;-75
2023/06/18 02:20:18;;;;;;;44.83;40.70;;;13.40;99.90;;;;;;4918362;29;20079;-75
2023/06/18 02:22:44;;;;;;;46.83;42.13;;;13.40;99.90;;;;;;4925747;29;20058;-75
2023/06/18 02:25:10;;;;;;;42.97;38.97;;;13.40;99.90;;;;;;4921052;29;20087;-75
2023/06/18 02:27:36;;;;;;;44.78;40.17;;;13.40;99.90;;;;;;4917877;29;20043;-75
2023/06/18 02:30:03;;;;;;;44.30;40.20;;;13.30;99.90;;;;;;4918204;29;20175;-75
2023/06/18 02:32:31;;;;;;;44.65;40.53;;;13.30;99.90;;;;;;4908329;29;20050;-74
2023/06/18 02:34:56;;;;;;;51.58;46.30;;;13.30;99.90;;;;;;4925779;29;20044;-75
2023/06/18 02:37:22;;;;;;;48.70;43.85;;;13.30;99.90;;;;;;4917849;29;20043;-75
2023/06/18 02:39:48;;;;;;;47.60;43.00;;;13.30;99.90;;;;;;4918076;29;20426;-75
2023/06/18 02:42:13;;;;;;;54.72;49.00;;;13.30;99.90;;;;;;4923824;29;20089;-75
2023/06/18 02:44:41;;;;;;;46.35;42.05;;;13.20;99.90;;;;;;4927217;29;20092;-75
2023/06/18 02:47:08;;;;;;;49.25;44.28;;;13.20;99.90;;;;;;4917094;29;20039;-75
2023/06/18 02:49:34;;;;;;;53.33;47.60;;;13.20;99.90;;;;;;4918175;29;20062;-75
2023/06/18 02:51:59;;;;;;;50.35;45.50;;;13.20;99.90;;;;;;4921836;29;20043;-75
2023/06/18 02:54:25;;;;;;;46.92;42.47;;;13.10;99.90;;;;;;4929803;29;20058;-75
2023/06/18 02:56:50;;;;;;;46.20;41.80;;;13.10;99.90;;;;;;4917669;29;20140;-75
2023/06/18 02:59:16;;;;;;;47.03;42.55;;;13.10;99.90;;;;;;4917850;29;20039;-75
2023/06/18 03:01:44;;;;;;;50.45;45.38;;;13.10;99.90;;;;;;4919399;29;20510;-75
2023/06/18 03:04:10;;;;;;;50.38;45.15;;;13.00;99.90;;;;;;4924837;29;20043;-75
2023/06/18 03:06:36;;;;;;;44.88;40.67;;;13.00;99.90;;;;;;4917185;29;20517;-75
2023/06/18 03:09:03;;;;;;;45.17;40.95;;;13.00;99.90;;;;;;4917657;29;20067;-75
2023/06/18 03:11:29;;;;;;;44.80;40.72;;;13.00;99.90;;;;;;4917370;29;20040;-75
2023/06/18 03:13:54;;;;;;;54.28;48.42;;;12.90;99.90;;;;;;4933985;28;20477;-75
2023/06/18 03:16:21;;;;;;;47.65;43.13;;;12.90;99.90;;;;;;4917270;29;20039;-75
2023/06/18 03:18:46;;;;;;;47.22;42.78;;;12.90;99.90;;;;;;4917465;29;20043;-75
2023/06/18 03:21:12;;;;;;;45.85;41.75;;;13.00;99.90;;;;;;4916568;29;20462;-75
2023/06/18 03:23:37;;;;;;;53.90;48.15;;;13.00;99.90;;;;;;4928545;29;20071;-74
2023/06/18 03:26:03;;;;;;;58.42;52.22;;;13.00;99.90;;;;;;4916955;29;20039;-75
2023/06/18 03:28:29;;;;;;;57.38;51.42;;;13.20;99.90;;;;;;4917333;29;20112;-75
2023/06/18 03:30:55;;;;;;;52.65;47.35;;;13.30;99.90;;;;;;4917630;29;20398;-75
2023/06/18 03:33:21;;;;;;;54.08;48.55;;;13.50;99.90;;;;;;4928784;29;20039;-75
2023/06/18 03:35:47;;;;;;;53.92;48.40;;;13.60;99.90;;;;;;4918973;29;20379;-75
2023/06/18 03:38:13;;;;;;;54.45;48.75;;;13.70;99.90;;;;;;4917329;29;20130;-75
2023/06/18 03:40:39;;;;;;;52.38;46.95;;;13.80;99.90;;;;;;4917284;29;20039;-75
2023/06/18 03:43:05;;;;;;;52.60;47.22;;;13.80;99.90;;;;;;4928523;29;20047;-75
2023/06/18 03:45:30;;;;;;;49.88;45.08;;;13.90;99.90;;;;;;4921109;29;20525;-75
2023/06/18 03:47:56;;;;;;;50.72;45.63;;;14.00;99.90;;;;;;4923227;29;20094;-75
2023/06/18 03:50:21;;;;;;;52.15;46.95;;;14.10;99.90;;;;;;4933086;29;20123;-75
2023/06/18 03:52:47;;;;;;;50.08;45.15;;;14.20;99.90;;;;;;4927289;29;20403;-75
2023/06/18 03:55:13;;;;;;;49.90;45.00;;;14.30;99.90;;;;;;4919453;29;20043;-75
2023/06/18 03:57:39;;;;;;;50.55;45.85;;;14.40;99.90;;;;;;4916871;29;20047;-75
2023/06/18 04:00:07;;;;;;;50.92;45.95;;;14.50;99.90;;;;;;4917235;29;20048;-75
2023/06/18 04:02:33;;;;;;;47.97;43.47;;;14.70;99.90;;;;;;4922879;29;20046;-75
2023/06/18 04:04:59;;;;;;;47.60;42.92;;;14.80;99.90;;;;;;4925968;29;20043;-75
2023/06/18 04:07:24;;;;;;;48.55;43.63;;;14.90;99.90;;;;;;4916623;29;20074;-75
2023/06/18 04:09:50;;;;;;;47.38;42.80;;;15.00;99.90;;;;;;4917062;29;20087;-75
2023/06/18 04:12:16;;;;;;;47.47;42.78;;;15.10;99.90;;;;;;4922841;29;20039;-75
2023/06/18 04:14:41;;;;;;;46.60;42.05;;;15.20;99.90;;;;;;4926996;29;20031;-75
2023/06/18 04:17:07;;;;;;;47.70;43.25;;;15.20;99.90;;;;;;4916967;29;20047;-75
2023/06/18 04:19:32;;;;;;;46.40;41.85;;;15.30;99.90;;;;;;4917051;29;20043;-75
2023/06/18 04:21:58;;;;;;;46.25;41.83;;;15.40;99.90;;;;;;4920862;29;20442;-75
2023/06/18 04:24:23;;;;;;;46.10;41.63;;;15.50;99.90;;;;;;4930275;29;20031;-76
2023/06/18 04:26:49;;;;;;;46.38;41.97;;;15.60;99.90;;;;;;4920006;29;20098;-75
2023/06/18 04:29:15;;;;;;;45.65;41.35;;;15.70;99.90;;;;;;4920093;29;20487;-75
2023/06/18 04:31:41;;;;;;;47.47;42.88;;;15.70;99.90;;;;;;4918975;29;20071;-75
2023/06/18 04:34:07;;;;;;;45.45;41.03;;;15.80;99.90;;;;;;4934426;29;20071;-75
2023/06/18 04:36:33;;;;;;;46.50;41.80;;;15.90;99.90;;;;;;4920173;29;20446;-75
2023/06/18 04:38:59;;;;;;;44.25;40.05;;;16.00;99.90;;;;;;4920479;29;20079;-75
2023/06/18 04:41:25;;;;;;;44.45;40.45;;;16.20;99.90;;;;;;4918808;29;20051;-75
2023/06/18 04:43:51;;;;;;;43.05;38.95;;;16.30;99.90;;;;;;4919780;29;20159;-75
2023/06/18 04:46:17;;;;;;;41.63;37.75;;;16.40;99.90;;;;;;4912103;29;20638;-75
2023/06/18 04:48:43;;;;;;;41.60;37.67;;;16.60;99.90;;;;;;4919950;29;20047;-75
2023/06/18 04:51:09;;;;;;;41.25;37.42;;;16.90;99.90;;;;;;4919642;29;20066;-75
2023/06/18 04:53:35;;;;;;;39.88;36.22;;;17.10;99.90;;;;;;4935033;29;20377;-75
2023/06/18 04:56:00;;;;;;;41.85;37.95;;;17.20;99.90;;;;;;4935526;29;20131;-75
2023/06/18 04:58:27;;;;;;;41.58;37.78;;;17.30;99.90;;;;;;4935804;29;20521;-75
2023/06/18 05:00:53;;;;;;;40.45;36.30;;;17.50;99.90;;;;;;4924995;29;20032;-75
2023/06/18 05:03:18;;;;;;;41.63;37.70;;;17.50;99.90;;;;;;4919872;29;20043;-75
2023/06/18 05:05:44;;;;;;;40.35;36.63;;;17.60;99.90;;;;;;4919929;29;20043;-75
2023/06/18 05:08:10;;;;;;;39.40;35.90;;;17.90;99.90;;;;;;4922442;29;20048;-75
2023/06/18 05:10:36;;;;;;;40.78;36.92;;;18.00;99.90;;;;;;4911639;29;20379;-75
2023/06/18 05:13:02;;;;;;;39.28;35.78;;;18.30;99.90;;;;;;4895463;29;20071;-75
2023/06/18 05:15:28;;;;;;;39.08;35.45;;;18.50;99.90;;;;;;4908620;29;20050;-75
2023/06/18 05:17:53;;;;;;;38.30;34.88;;;18.80;99.90;;;;;;4904887;29;20047;-75
2023/06/18 05:20:19;;;;;;;38.30;34.70;;;18.90;99.90;;;;;;4911101;29;20079;-75
2023/06/18 05:22:45;;;;;;;39.28;35.65;;;18.90;99.90;;;;;;4917716;29;20070;-75
2023/06/18 05:25:11;;;;;;;40.00;36.20;;;18.60;99.90;;;;;;4908278;29;20092;-75
2023/06/18 05:27:36;;;;;;;38.92;35.38;;;18.40;99.90;;;;;;4900714;29;20048;-75
2023/06/18 05:30:03;;;;;;;39.63;35.90;;;18.10;99.90;;;;;;4911240;29;20046;-75
2023/06/18 05:32:29;;;;;;;40.42;36.63;;;18.00;99.90;;;;;;4906687;29;20092;-75
2023/06/18 05:34:57;;;;;;;41.58;37.70;;;17.90;99.90;;;;;;4899131;29;20044;-75
2023/06/18 05:37:22;;;;;;;41.67;37.38;;;17.90;99.90;;;;;;4900088;29;20040;-75
2023/06/18 05:39:50;;;;;;;39.75;36.15;;;17.80;99.90;;;;;;4884065;29;20036;-75
2023/06/18 05:42:16;;;;;;;39.88;36.05;;;17.90;99.90;;;;;;4912285;29;20047;-75
2023/06/18 05:44:41;;;;;;;38.75;35.15;;;17.90;99.90;;;;;;4900211;29;20040;-75
2023/06/18 05:47:07;;;;;;;40.88;37.05;;;17.90;99.90;;;;;;4900116;29;20096;-75
2023/06/18 05:49:32;;;;;;;40.30;36.65;;;17.90;99.90;;;;;;4904038;29;20523;-75
2023/06/18 05:51:58;;;;;;;42.80;38.72;;;17.90;99.90;;;;;;4918783;29;20036;-75
2023/06/18 05:54:25;;;;;;;42.60;38.50;;;17.90;99.90;;;;;;4918959;29;20122;-75
2023/06/18 05:56:51;;;;;;;40.40;36.70;;;17.90;99.90;;;;;;4923584;29;20424;-75
2023/06/18 05:59:17;;;;;;;40.40;36.60;;;18.00;99.90;;;;;;4887472;29;20080;-75
2023/06/18 06:01:42;;;;;;;41.17;37.30;;;18.00;99.90;;;;;;4888109;29;20072;-75
2023/06/18 06:04:08;;;;;;;41.15;37.35;;;18.10;99.90;;;;;;4915168;29;20134;-75
2023/06/18 06:06:33;;;;;;;40.30;36.53;;;18.20;99.90;;;;;;4911665;29;20033;-75
2023/06/18 06:09:00;;;;;;;41.10;37.17;;;18.20;99.90;;;;;;4907448;29;20040;-75
2023/06/18 06:54:13;;;;;;;35.03;31.55;;;20.00;99.90;;;;;;4844607;29;20069;-80
2023/06/18 07:17:48;;;;;;;30.90;27.93;;;21.20;99.90;;;;;;6124675;22;4423981;-81
2023/06/18 07:20:17;;;;;;;33.55;30.50;;;21.40;99.90;;;;;;6262536;22;20280;-77
2023/06/18 07:22:46;;;;;;;31.35;28.75;;;21.70;99.90;;;;;;6240541;22;20339;-76
2023/06/18 07:25:14;;;;;;;31.73;28.75;;;21.80;99.90;;;;;;6229087;22;20112;-77
2023/06/18 07:28:17;;;;;;;30.67;27.88;;;22.10;99.90;;;;;;6234406;22;20063;-78
2023/06/18 07:31:01;;;;;;;29.63;26.80;;;22.30;99.90;;;;;;6264419;22;20011;-78
2023/06/18 07:33:53;;;;;;;30.70;27.70;;;22.30;99.90;;;;;;6287476;22;20423;-79
2023/06/18 07:36:24;;;;;;;28.65;26.05;;;22.40;99.90;;;;;;6231016;22;20099;-77
2023/06/18 07:39:11;;;;;;;29.73;27.20;;;22.40;99.90;;;;;;6231621;22;20019;-78
2023/06/18 07:41:42;;;;;;;28.95;26.27;;;22.70;99.90;;;;;;6230844;22;20016;-78
2023/06/18 07:44:17;;;;;;;27.38;24.88;;;22.90;99.90;;;;;;6232232;22;20021;-78
2023/06/18 07:47:03;;;;;;;25.05;22.75;;;23.30;99.90;;;;;;6231521;22;20008;-77
2023/06/18 07:49:31;;;;;;;24.30;22.10;;;23.80;99.90;;;;;;6256579;22;20011;-78
2023/06/18 07:52:03;;;;;;;23.38;21.17;;;24.50;99.90;;;;;;6230824;22;20018;-77
2023/06/18 07:54:29;;;;;;;23.98;21.77;;;24.90;99.90;;;;;;6230027;22;20081;-78
2023/06/18 07:56:57;;;;;;;23.48;21.35;;;25.00;99.90;;;;;;6229783;22;20016;-79
2023/06/18 07:59:29;;;;;;;21.98;19.90;;;25.10;96.30;;;;;;6230268;22;20158;-79
2023/06/18 08:02:03;;;;;;;22.92;20.77;;;24.90;99.90;;;;;;6228690;22;20313;-76
2023/06/18 08:04:34;;;;;;;23.30;21.20;;;24.80;99.90;;;;;;6254630;22;20019;-78
2023/06/18 08:07:09;;;;;;;23.30;21.13;;;24.80;99.90;;;;;;6253948;22;20480;-78
2023/06/18 08:09:37;;;;;;;23.35;21.15;;;24.80;99.90;;;;;;6255062;22;20446;-78
2023/06/18 08:12:25;;;;;;;21.60;19.63;;;24.90;99.00;;;;;;6230775;22;20451;-77
2023/06/18 08:14:56;;;;;;;20.60;18.70;;;24.90;99.90;;;;;;6200432;22;20090;-77
2023/06/18 08:17:22;;;;;;;20.80;18.98;;;25.00;98.90;;;;;;6223257;22;20023;-78
2023/06/18 08:20:16;;;;;;;20.67;18.70;;;25.10;96.70;;;;;;6248940;22;20016;-78
2023/06/18 08:22:45;;;;;;;20.98;19.08;;;25.20;96.90;;;;;;6222688;22;20360;-80
2023/06/18 08:28:49;;;;;;;19.60;17.67;;;25.40;94.00;;;;;;6220871;23;20016;-80
2023/06/18 08:31:34;;;;;;;18.13;16.42;;;25.60;80.20;;;;;;6221765;22;20008;-79
2023/06/18 08:34:13;;;;;;;18.88;17.17;;;25.70;77.00;;;;;;6193871;23;20016;-79
2023/06/18 08:36:49;;;;;;;17.33;15.73;;;26.00;77.30;;;;;;6194095;23;20363;-80
2023/06/18 08:39:31;;;;;;;;;;;;;;;;;;;;;
2023/06/18 08:42:19;;;;;;;;;;;;;;;;;;;;;
2023/06/18 08:44:53;;;;;;;19.15;17.25;;;27.00;72.10;;;;;;6217725;23;20023;-79
2023/06/18 08:51:00;;;;;;;15.48;13.98;;;27.60;69.70;;;;;;6223811;23;20461;-79
2023/06/18 08:54:00;;;;;;;14.85;13.35;;;28.00;65.80;;;;;;6225962;23;20047;-80
2023/06/18 08:56:55;;;;;;;14.32;12.98;;;28.10;62.60;;;;;;6157036;23;20016;-79
2023/06/18 08:59:39;;;;;;;14.23;12.82;;;27.80;68.10;;;;;;6246072;23;20016;-79
2023/06/18 09:02:21;;;;;;;14.00;12.68;;;27.90;67.10;;;;;;6217710;23;20484;-78
2023/06/18 09:05:06;;;;;;;14.05;12.50;;;28.00;65.60;;;;;;6195235;23;20020;-79
2023/06/18 09:07:58;;;;;;;12.43;11.23;;;27.90;65.00;;;;;;6219154;23;20077;-79
2023/06/18 09:10:54;;;;;;;12.35;11.15;;;28.00;65.60;;;;;;6223327;23;20464;-78
2023/06/18 09:13:23;;;;;;;12.77;11.48;;;28.20;67.10;;;;;;6194079;23;20055;-79
2023/06/18 09:15:58;;;;;;;12.90;10.82;;;28.90;65.30;;;;;;6217602;23;20023;-79
2023/06/18 09:18:27;;;;;;;11.40;10.30;;;29.60;62.00;;;;;;6193688;23;20461;-79
2023/06/18 09:20:53;;;;;;;11.98;10.88;;;30.20;60.10;;;;;;6191505;23;20016;-79
2023/06/18 09:24:01;;;;;;;11.40;10.30;;;30.40;58.20;;;;;;6170248;23;20064;-79
2023/06/18 09:26:58;;;;;;;12.20;10.20;;;30.40;58.40;;;;;;6216418;23;20016;-79
2023/06/18 09:29:32;;;;;;;10.95;9.65;;;30.50;58.30;;;;;;6157104;23;20012;-79
2023/06/18 09:32:22;;;;;;;11.60;10.50;;;30.50;55.20;;;;;;6199727;23;20023;-79
2023/06/18 09:35:35;;;;;;;11.68;10.57;;;30.10;56.80;;;;;;6128705;23;20021;-79
2023/06/18 09:38:33;;;;;;;10.25;9.25;;;30.00;58.30;;;;;;6116516;23;20012;-79
2023/06/18 09:41:12;;;;;;;9.15;8.25;;;30.20;58.70;;;;;;6191105;22;20330;-79
2023/06/18 09:43:56;;;;;;;9.88;8.60;;;30.40;57.10;;;;;;6193994;23;20073;-79
2023/06/18 09:46:30;;;;;;;10.88;9.70;;;30.70;57.20;;;;;;6244123;23;20031;-80
2023/06/18 09:48:56;;;;;;;10.00;9.00;;;30.90;55.70;;;;;;6217475;23;20467;-79
2023/06/18 09:51:38;;;;;;;46.78;10.48;;;31.20;55.40;;;;;;6218147;22;20448;-78
2023/06/18 09:54:06;;;;;;;11.93;8.00;;;31.80;54.40;;;;;;6218476;23;20471;-79
2023/06/18 09:57:03;;;;;;;11.98;9.50;;;32.30;54.90;;;;;;6219801;23;20027;-80
2023/06/18 09:59:32;;;;;;;11.88;9.32;;;32.40;53.20;;;;;;6193428;23;20023;-79
2023/06/18 10:02:23;;;;;;;10.05;9.07;;;32.30;53.50;;;;;;6217690;23;20091;-79
2023/06/18 10:05:05;;;;;;;10.82;9.73;;;32.20;53.80;;;;;;6218942;23;20012;-79
2023/06/18 10:07:58;;;;;;;10.40;9.30;;;32.00;52.30;;;;;;6217740;23;20444;-79
2023/06/18 10:10:29;;;;;;;11.00;9.35;;;31.70;53.70;;;;;;6191878;23;20083;-79
2023/06/18 10:13:00;;;;;;;9.70;8.50;;;31.50;54.50;;;;;;6217783;23;20020;-79
2023/06/18 10:15:37;;;;;;;10.23;8.98;;;31.40;55.40;;;;;;6217865;23;20016;-79
2023/06/18 10:18:08;;;;;;;10.60;9.50;;;31.30;54.10;;;;;;6193045;23;20020;-78
2023/06/18 10:20:37;;;;;;;10.55;9.65;;;31.20;54.60;;;;;;6217206;23;20459;-78
2023/06/18 10:23:09;;;;;;;11.00;9.88;;;31.10;54.40;;;;;;6192863;23;20094;-78
2023/06/18 10:25:36;;;;;;;10.38;9.48;;;31.10;55.30;;;;;;6192651;23;20066;-77
2023/06/18 10:28:10;;;;;;;9.63;8.65;;;31.00;54.60;;;;;;6216242;23;20020;-79
2023/06/18 10:31:05;;;;;;;10.63;9.43;;;31.00;55.60;;;;;;6217254;23;20015;-79
2023/06/18 10:33:33;;;;;;;9.95;9.05;;;31.10;54.30;;;;;;6217233;23;20012;-78
2023/06/18 10:36:08;;;;;;;8.82;8.00;;;31.20;56.10;;;;;;6192034;23;20012;-79
2023/06/18 10:38:37;;;;;;;9.95;9.00;;;31.20;54.30;;;;;;6192053;23;20020;-78
2023/06/18 10:41:20;;;;;;;9.50;8.70;;;31.40;52.50;;;;;;6192610;22;20107;-79
2023/06/18 10:44:07;;;;;;;9.65;8.48;;;31.70;53.30;;;;;;6192950;23;20016;-79
2023/06/18 10:46:35;;;;;;;8.05;7.35;;;31.90;51.50;;;;;;6215159;23;20016;-80
2023/06/18 10:49:20;;;;;;;7.55;6.80;;;32.20;50.20;;;;;;6216819;23;20012;-80
2023/06/18 10:52:29;;;;;;;9.02;7.00;;;32.60;48.80;;;;;;6193022;23;20476;-80
2023/06/18 10:55:15;;;;;;;8.10;7.35;;;32.90;47.60;;;;;;6219476;23;20146;-80
2023/06/18 10:58:16;;;;;;;7.93;7.00;;;33.30;49.00;;;;;;6192246;23;20012;-81
2023/06/18 11:01:17;;;;;;;7.65;6.90;;;33.50;44.90;;;;;;6214922;23;20023;-80
2023/06/18 11:03:58;;;;;;;;;;;33.50;45.90;;;;;;6178328;23;20091;-81
2023/06/18 11:06:32;;;;;;;8.68;7.75;;;33.50;47.60;;;;;;6192451;23;19918;-80
2023/06/18 11:08:59;;;;;;;10.32;8.05;;;33.50;48.00;;;;;;6192930;23;20012;-79
2023/06/18 11:11:49;;;;;;;8.32;7.53;;;33.60;47.30;;;;;;6218576;23;20379;-80
2023/06/18 11:14:40;;;;;;;9.85;8.18;;;33.90;52.00;;;;;;6244570;23;20024;-80
2023/06/18 11:17:17;;;;;;;8.88;8.05;;;34.00;49.00;;;;;;6192422;23;20023;-79
2023/06/18 11:19:52;;;;;;;9.73;8.98;;;34.10;48.90;;;;;;6192482;23;20020;-80
2023/06/18 11:22:24;;;;;;;9.95;9.00;;;34.20;47.90;;;;;;6217336;23;20044;-79
2023/06/18 11:24:55;;;;;;;11.25;9.05;;;34.20;47.40;;;;;;6218433;23;20528;-80
2023/06/18 11:27:23;;;;;;;9.80;8.80;;;34.20;47.70;;;;;;6217708;23;20087;-80
2023/06/18 11:30:08;;;;;;;9.80;8.60;;;34.30;48.10;;;;;;6192449;23;20432;-80
2023/06/18 11:32:37;;;;;;;9.85;8.90;;;34.30;47.00;;;;;;6196741;23;20340;-79
2023/06/18 11:35:10;;;;;;;8.98;8.13;;;34.20;47.80;;;;;;6198535;23;20012;-80
2023/06/18 11:37:44;;;;;;;9.18;8.38;;;34.20;47.60;;;;;;6248159;23;20013;-79
2023/06/18 11:40:11;;;;;;;9.43;8.43;;;34.20;48.50;;;;;;6173324;23;20008;-79
2023/06/18 11:42:51;;;;;;;9.68;8.68;;;34.30;49.40;;;;;;6195829;23;20014;-79
2023/06/18 11:45:18;;;;;;;18.25;10.05;;;34.50;48.50;;;;;;6196701;23;20016;-79
2023/06/18 11:47:55;;;;;;;9.02;8.18;;;34.70;47.10;;;;;;6198159;23;20037;-79
2023/06/18 11:50:32;;;;;;;8.98;8.25;;;34.80;45.60;;;;;;6197937;23;20016;-79
2023/06/18 11:53:09;;;;;;;9.02;7.63;;;34.80;45.90;;;;;;6198530;23;20012;-79
2023/06/18 11:55:45;;;;;;;10.07;8.90;;;34.70;47.30;;;;;;6202979;23;20012;-80
2023/06/18 11:58:15;;;;;;;9.07;8.27;;;34.50;46.30;;;;;;6249617;23;20452;-79
2023/06/18 12:00:48;;;;;;;9.02;8.07;;;34.30;45.40;;;;;;6198876;23;20012;-80
2023/06/18 12:03:19;;;;;;;32.60;9.48;;;34.40;45.30;;;;;;6197006;23;20016;-80
2023/06/18 12:05:47;;;;;;;8.70;7.07;;;34.50;45.10;;;;;;6198712;23;20014;-81
2023/06/18 12:08:14;;;;;;;7.38;6.72;;;34.50;45.20;;;;;;6148569;23;20016;-80
2023/06/18 12:10:47;;;;;;;8.07;6.78;;;34.70;44.50;;;;;;6224842;23;20046;-79
2023/06/18 12:13:43;;;;;;;7.70;7.00;;;34.90;45.70;;;;;;6198242;23;20019;-80
2023/06/18 12:16:21;;;;;;;8.13;7.43;;;35.00;44.90;;;;;;6191161;23;20395;-80
2023/06/18 12:18:58;;;;;;;8.15;7.43;;;35.10;44.40;;;;;;6220953;23;20012;-80
2023/06/18 12:21:33;;;;;;;7.43;6.72;;;35.00;44.70;;;;;;6198509;23;20027;-80
2023/06/18 12:24:04;;;;;;;7.53;6.82;;;34.90;44.10;;;;;;6221405;23;20020;-79
2023/06/18 12:26:30;;;;;;;7.30;6.60;;;34.80;43.50;;;;;;6195075;23;20008;-79
2023/06/18 12:28:56;;;;;;;6.25;5.75;;;34.50;43.60;;;;;;6219340;23;20036;-79
2023/06/18 12:31:22;;;;;;;7.10;6.32;;;34.40;42.50;;;;;;6217753;22;20019;-82
2023/06/18 12:33:48;;;;;;;7.07;6.30;;;34.20;42.00;;;;;;6218077;23;20012;-78
2023/06/18 12:36:14;;;;;;;7.38;6.68;;;33.90;42.50;;;;;;6218004;23;20081;-78
2023/06/18 12:38:41;;;;;;;7.20;6.47;;;33.70;42.60;;;;;;6218930;23;20399;-79
2023/06/18 12:41:08;;;;;;;6.82;6.18;;;33.40;42.90;;;;;;6193056;22;20012;-78
2023/06/18 12:43:41;;;;;;;7.75;6.20;;;33.30;43.90;;;;;;6218165;23;20035;-78
2023/06/18 12:46:06;;;;;;;7.20;6.05;;;33.30;44.60;;;;;;6218268;23;20019;-78
2023/06/18 12:48:39;;;;;;;6.35;5.85;;;33.20;44.80;;;;;;6218968;23;20337;-79
2023/06/18 12:51:05;;;;;;;6.15;5.55;;;33.00;42.60;;;;;;6193539;22;20352;-79
2023/06/18 12:53:31;;;;;;;6.65;6.03;;;32.80;42.80;;;;;;6220529;23;20016;-79
2023/06/18 12:56:32;;;;;;;6.40;5.72;;;32.70;42.20;;;;;;6219218;23;20012;-80
2023/06/18 12:59:55;;;;;;;6.63;6.03;;;32.60;42.00;;;;;;6223585;23;20019;-80
2023/06/18 13:03:15;;;;;;;7.45;6.75;;;32.60;43.30;;;;;;6222740;22;20377;-81
2023/06/18 13:06:13;;;;;;;8.40;6.50;;;32.50;42.40;;;;;;6109765;23;20491;-81
2023/06/18 13:09:33;;;;;;;7.90;6.30;;;32.30;42.20;;;;;;6203027;23;20035;-80
2023/06/18 13:12:35;;;;;;;6.93;6.30;;;32.30;44.60;;;;;;6188819;23;20012;-80
2023/06/18 13:16:02;;;;;;;7.70;7.00;;;32.30;44.50;;;;;;6202516;23;20042;-81
2023/06/18 13:22:07;;;;;;;7.97;7.18;;;32.10;43.70;;;;;;6223217;22;20078;-80
2023/06/18 13:25:12;;;;;;;7.88;7.18;;;32.10;44.20;;;;;;6201568;23;20070;-80
2023/06/18 13:28:08;;;;;;;9.23;7.00;;;32.10;43.30;;;;;;6245717;23;20384;-80
2023/06/18 13:32:03;;;;;;;;;;;;;;;;;;;;;
2023/06/18 13:35:01;;;;;;;8.13;6.70;;;32.10;41.90;;;;;;6062016;23;20053;-81
2023/06/18 13:37:50;;;;;;;7.78;6.70;;;31.90;44.20;;;;;;6024094;23;20499;-81
2023/06/18 13:41:15;;;;;;;7.72;6.95;;;31.90;43.80;;;;;;6094387;23;20078;-81
2023/06/18 13:45:12;;;;;;;8.37;6.53;;;31.80;44.10;;;;;;6039139;23;20548;-82
2023/06/18 13:48:05;;;;;;;7.70;6.90;;;31.70;43.10;;;;;;6071561;23;20045;-81
2023/06/18 13:50:52;;;;;;;8.05;7.25;;;31.60;44.30;;;;;;6016664;23;20444;-81
2023/06/18 13:54:09;;;;;;;7.65;6.90;;;31.50;44.70;;;;;;6020891;23;20015;-81
2023/06/18 13:57:21;;;;;;;7.50;6.80;;;31.40;43.80;;;;;;6091460;23;20093;-82
2023/06/18 14:00:45;;;;;;;8.52;7.72;;;31.20;45.30;;;;;;6117595;23;20022;-81
2023/06/18 14:07:28;;;;;;;8.75;7.75;;;30.70;44.20;;;;;;5978147;24;20480;-81
2023/06/18 14:11:16;;;;;;;8.38;7.22;;;30.60;45.20;;;;;;5879735;24;20052;-81
2023/06/18 14:14:38;;;;;;;;;;;;;;;;;;;;;
2023/06/18 14:17:45;;;;;;;8.20;7.43;;;30.40;46.40;;;;;;6181657;23;20369;-81
2023/06/18 14:21:24;;;;;;;8.45;7.65;;;30.30;46.00;;;;;;6198042;23;20019;-80
2023/06/18 14:27:08;;;;;;;;;;;;;;;;;;;;;
2023/06/18 14:29:40;;;;;;;8.40;7.70;;;30.00;47.30;;;;;;6220041;23;20016;-79
2023/06/18 14:32:06;;;;;;;7.85;7.15;;;29.90;48.30;;;;;;6194156;23;20015;-79
2023/06/18 14:34:35;;;;;;;7.72;7.13;;;29.90;48.40;;;;;;6196145;23;20428;-80
2023/06/18 14:37:01;;;;;;;8.40;7.63;;;29.80;48.70;;;;;;6218941;23;20042;-80
2023/06/18 14:39:26;;;;;;;7.65;7.05;;;29.70;48.30;;;;;;6219434;23;20012;-80